Time;durP1;ratioP1;P1;durP2;ratioP2;P2;SDS_P1;SDS_P2;PMS_P1;PMS_P2;Temp;Humidity;BMP_temperature;BMP_pressure;BME280_temperature;BME280_humidity;BME280_pressure;Samples;Min_cycle;Max_cycle;Signal;HPM_P1;HPM_P2
2022/05/13 00:01:38;;;;;;;4.13;1.30;;;;;;;25.86;31.29;102136.00;5074392;28;20027;-47
2022/05/13 00:04:07;;;;;;;3.47;1.40;;;;;;;25.86;31.12;102125.50;5075317;28;20534;-42
2022/05/13 00:06:36;;;;;;;4.15;1.40;;;;;;;25.90;31.10;102129.97;5075324;28;20028;-46
2022/05/13 00:09:05;;;;;;;3.05;1.10;;;;;;;25.89;30.98;102122.06;5058145;28;20090;-42
2022/05/13 00:11:34;;;;;;;5.32;1.58;;;;;;;25.80;31.37;102128.00;5075318;28;20024;-42
2022/05/13 00:14:02;;;;;;;3.40;1.10;;;;;;;25.84;31.18;102136.84;5075322;28;20025;-45
2022/05/13 00:16:31;;;;;;;4.88;1.23;;;;;;;25.90;30.79;102129.97;5057705;28;20025;-47
2022/05/13 00:18:59;;;;;;;4.00;1.80;;;;;;;25.84;31.04;102139.47;5090652;28;20082;-47
2022/05/13 00:21:28;;;;;;;6.30;1.30;;;;;;;25.78;31.13;102135.81;5073988;28;20025;-44
2022/05/13 00:23:57;;;;;;;4.32;1.20;;;;;;;25.76;31.03;102148.03;5074826;28;20401;-44
2022/05/13 00:26:25;;;;;;;4.50;1.33;;;;;;;25.76;31.10;102141.91;5073693;28;20434;-42
2022/05/13 00:28:54;;;;;;;2.45;0.95;;;;;;;25.71;31.13;102140.91;5075233;28;20052;-48
2022/05/13 00:31:23;;;;;;;3.65;1.40;;;;;;;25.66;31.12;102138.16;5057236;28;20393;-47
2022/05/13 00:33:52;;;;;;;5.00;1.30;;;;;;;25.59;31.27;102142.38;5074910;28;20107;-43
2022/05/13 00:36:23;;;;;;;5.70;1.35;;;;;;;25.60;31.18;102131.03;5074694;28;20034;-45
2022/05/13 00:38:52;;;;;;;4.15;1.45;;;;;;;25.63;30.92;102131.13;5075038;28;20042;-45
2022/05/13 00:41:21;;;;;;;3.55;1.20;;;;;;;25.67;30.96;102123.28;5074768;28;20028;-47
2022/05/13 00:43:53;;;;;;;4.28;1.05;;;;;;;25.71;30.79;102130.38;5074566;28;20090;-46
2022/05/13 00:46:22;;;;;;;2.97;0.98;;;;;;;25.69;31.05;102124.22;5073038;28;20021;-42
2022/05/13 00:48:51;;;;;;;2.83;1.10;;;;;;;25.71;30.96;102115.53;5073312;28;20067;-42
2022/05/13 00:51:22;;;;;;;3.97;1.27;;;;;;;25.70;31.08;102113.75;5074480;28;20060;-42
2022/05/13 00:53:51;;;;;;;3.25;1.30;;;;;;;25.67;30.79;102115.41;5074469;28;20497;-46
2022/05/13 00:56:20;;;;;;;5.18;1.23;;;;;;;25.60;30.97;102107.38;5074016;28;20021;-43
2022/05/13 00:58:51;;;;;;;2.72;1.02;;;;;;;25.65;31.06;102111.88;5073135;28;20051;-46
2022/05/13 01:01:19;;;;;;;2.70;1.00;;;;;;;25.67;30.51;102118.94;5073307;28;20031;-46
2022/05/13 01:03:49;;;;;;;3.67;1.60;;;;;;;25.65;30.92;102118.00;5073985;28;20074;-43
2022/05/13 01:06:20;;;;;;;4.78;1.23;;;;;;;25.60;30.58;102109.09;5072846;28;20028;-46
2022/05/13 01:08:49;;;;;;;2.47;1.35;;;;;;;25.54;30.92;102115.09;5056530;28;20489;-44
2022/05/13 01:11:21;;;;;;;4.10;1.52;;;;;;;25.50;30.68;102112.38;5072564;28;20028;-46
2022/05/13 01:13:52;;;;;;;2.35;1.00;;;;;;;25.57;30.64;102116.91;5074069;28;20473;-46
2022/05/13 01:16:21;;;;;;;2.03;0.98;;;;;;;25.49;30.84;102106.22;5072965;28;20067;-45
2022/05/13 01:18:49;;;;;;;2.45;1.05;;;;;;;25.52;30.88;102115.94;5056331;28;20021;-43
2022/05/13 01:21:29;;;;;;;3.78;1.40;;;;;;;25.46;30.93;102107.03;5073071;28;20043;-42
2022/05/13 01:23:58;;;;;;;3.28;1.02;;;;;;;25.42;31.06;102115.69;5073789;28;20117;-43
2022/05/13 01:26:29;;;;;;;4.47;1.30;;;;;;;25.40;30.81;102112.09;5073680;28;20024;-46
2022/05/13 01:28:58;;;;;;;3.05;0.95;;;;;;;25.42;30.89;102107.78;5074206;28;20024;-43
2022/05/13 01:31:37;;;;;;;3.50;1.30;;;;;;;25.41;30.97;102113.00;5074015;28;20029;-46
2022/05/13 01:34:08;;;;;;;6.10;0.85;;;;;;;25.35;30.80;102108.47;5073239;28;20039;-47
2022/05/13 01:36:39;;;;;;;2.85;0.88;;;;;;;25.40;30.83;102121.72;5073566;28;20467;-43
2022/05/13 01:39:08;;;;;;;1.63;0.70;;;;;;;25.36;30.92;102118.13;5073473;28;20432;-42
2022/05/13 01:41:37;;;;;;;2.03;0.90;;;;;;;25.29;30.76;102117.09;5073525;28;20033;-47
2022/05/13 01:44:05;;;;;;;3.20;0.80;;;;;;;25.30;30.55;102110.09;5072265;28;20020;-43
2022/05/13 01:46:34;;;;;;;2.53;1.10;;;;;;;25.32;30.54;102109.28;5073256;28;20032;-42
2022/05/13 01:49:03;;;;;;;3.15;1.23;;;;;;;25.26;30.85;102109.13;5073796;28;20021;-50
2022/05/13 01:51:32;;;;;;;2.95;1.10;;;;;;;25.27;30.81;102110.00;5072235;28;20033;-43
2022/05/13 01:54:00;;;;;;;5.68;1.13;;;;;;;25.31;30.88;102109.25;5073257;28;20028;-46
2022/05/13 01:56:29;;;;;;;3.53;1.10;;;;;;;25.17;31.06;102109.78;5073631;28;20421;-47
2022/05/13 01:58:57;;;;;;;2.25;0.80;;;;;;;25.26;30.33;102100.34;5073186;28;20111;-42
2022/05/13 02:01:26;;;;;;;2.63;0.70;;;;;;;25.28;30.58;102103.91;5073406;28;20028;-51
2022/05/13 02:03:54;;;;;;;3.17;1.15;;;;;;;25.25;30.85;102116.94;5072958;28;20032;-42
2022/05/13 02:06:26;;;;;;;2.55;0.90;;;;;;;25.26;30.51;102117.00;5073178;28;20108;-44
2022/05/13 02:08:58;;;;;;;2.70;0.90;;;;;;;25.23;30.71;102111.69;5073544;28;20462;-43
2022/05/13 02:11:29;;;;;;;3.13;0.88;;;;;;;25.17;30.46;102111.50;5073170;28;20028;-43
2022/05/13 02:13:57;;;;;;;4.70;1.17;;;;;;;25.12;30.80;102106.13;5073221;28;20028;-44
2022/05/13 02:16:26;;;;;;;2.92;0.80;;;;;;;25.20;30.74;102103.72;5072978;28;20039;-49
2022/05/13 02:18:55;;;;;;;3.13;0.95;;;;;;;25.14;30.49;102109.69;5073455;28;20020;-44
2022/05/13 02:21:24;;;;;;;2.00;0.93;;;;;;;25.11;30.54;102108.75;5073097;28;20028;-44
2022/05/13 02:23:53;;;;;;;2.90;0.95;;;;;;;25.17;30.65;102108.88;5072665;28;20051;-42
2022/05/13 02:26:22;;;;;;;2.03;0.77;;;;;;;25.13;30.53;102112.28;5072777;28;20024;-42
2022/05/13 02:28:50;;;;;;;1.90;0.70;;;;;;;25.10;30.42;102107.84;5073171;28;20025;-47
2022/05/13 02:31:19;;;;;;;2.95;1.00;;;;;;;25.11;30.40;102112.25;5072792;28;20028;-43
2022/05/13 02:33:47;;;;;;;2.50;1.05;;;;;;;25.12;30.37;102114.00;5073009;28;20170;-43
2022/05/13 02:36:16;;;;;;;3.17;0.80;;;;;;;25.09;30.71;102110.44;5072529;28;20024;-43
2022/05/13 02:38:44;;;;;;;3.72;1.00;;;;;;;25.00;30.89;102111.94;5072955;28;20031;-45
2022/05/13 02:41:13;;;;;;;1.40;0.60;;;;;;;25.03;30.74;102111.16;5073114;28;20482;-42
2022/05/13 02:43:54;;;;;;;1.85;0.70;;;;;;;25.08;30.70;102116.53;5072693;28;20036;-48
2022/05/13 02:46:25;;;;;;;2.55;0.73;;;;;;;25.10;30.09;102105.22;5072859;28;20029;-49
2022/05/13 02:48:54;;;;;;;2.47;0.80;;;;;;;25.01;30.43;102103.22;5073168;28;20533;-42
2022/05/13 02:51:23;;;;;;;1.85;0.80;;;;;;;25.02;30.48;102104.13;5076796;28;20040;-51
2022/05/13 02:53:52;;;;;;;2.58;0.80;;;;;;;24.98;30.26;102104.88;5076513;28;20248;-46
2022/05/13 02:56:21;;;;;;;2.58;0.70;;;;;;;24.98;30.73;102097.91;5076342;28;20032;-46
2022/05/13 02:58:49;;;;;;;2.40;0.80;;;;;;;24.97;30.62;102100.47;5076502;28;20462;-51
2022/05/13 03:01:18;;;;;;;2.03;0.65;;;;;;;24.96;30.31;102101.34;5075524;28;20033;-50
2022/05/13 03:03:48;;;;;;;2.42;0.90;;;;;;;24.92;30.23;102088.97;5076436;28;20480;-45
2022/05/13 03:06:17;;;;;;;1.60;0.88;;;;;;;24.91;30.39;102088.09;5075853;28;20044;-42
2022/05/13 03:08:45;;;;;;;1.52;0.60;;;;;;;24.90;30.20;102085.44;5074610;28;20028;-44
2022/05/13 03:11:14;;;;;;;2.40;0.52;;;;;;;24.90;30.41;102078.44;5076147;28;20032;-46
2022/05/13 03:13:43;;;;;;;3.15;0.75;;;;;;;24.84;30.55;102084.41;5076225;28;20107;-42
2022/05/13 03:16:18;;;;;;;3.30;0.68;;;;;;;24.87;30.60;102091.47;5076229;28;20033;-42
2022/05/13 03:18:47;;;;;;;1.63;0.50;;;;;;;24.93;30.50;102091.66;5076465;28;20064;-50
2022/05/13 03:21:16;;;;;;;1.77;0.73;;;;;;;24.86;30.20;102085.34;5075786;28;20027;-50
2022/05/13 03:23:44;;;;;;;4.65;1.02;;;;;;;24.86;30.42;102087.06;5075869;28;20072;-43
2022/05/13 03:26:14;;;;;;;4.05;1.00;;;;;;;24.79;30.02;102075.53;5075923;28;20052;-47
2022/05/13 03:28:43;;;;;;;2.42;0.70;;;;;;;24.77;30.69;102077.22;5076096;28;20029;-48
2022/05/13 03:31:15;;;;;;;3.90;0.93;;;;;;;24.81;30.26;102075.56;5076339;28;20201;-43
2022/05/13 03:33:44;;;;;;;2.45;1.05;;;;;;;24.78;30.65;102078.13;5075526;28;20029;-44
2022/05/13 03:36:12;;;;;;;2.30;1.10;;;;;;;24.78;30.29;102084.22;5075973;28;20020;-42
2022/05/13 03:38:41;;;;;;;5.05;1.08;;;;;;;24.72;30.36;102070.97;5075589;28;20470;-43
2022/05/13 03:41:11;;;;;;;1.50;0.70;;;;;;;24.80;30.22;102081.69;5075767;28;20024;-50
2022/05/13 03:43:39;;;;;;;1.05;0.60;;;;;;;24.73;30.38;102080.63;5075350;28;20466;-43
2022/05/13 03:46:08;;;;;;;2.20;0.73;;;;;;;24.75;30.30;102073.66;5075644;28;20028;-47
2022/05/13 03:48:36;;;;;;;1.85;0.73;;;;;;;24.75;30.08;102078.91;5075651;28;20074;-50
2022/05/13 03:51:05;;;;;;;2.13;0.80;;;;;;;24.73;30.03;102084.13;5075129;28;20036;-43
2022/05/13 03:53:34;;;;;;;2.80;1.00;;;;;;;24.71;30.23;102080.56;5075487;28;20146;-51
2022/05/13 03:56:02;;;;;;;0.88;0.55;;;;;;;24.78;30.23;102081.59;5075610;28;20531;-48
2022/05/13 03:58:31;;;;;;;2.35;0.85;;;;;;;24.81;29.85;102083.44;5075638;28;20032;-43
2022/05/13 04:00:59;;;;;;;2.97;0.73;;;;;;;24.75;30.32;102088.53;5075245;28;20387;-42
2022/05/13 04:03:28;;;;;;;4.15;0.90;;;;;;;24.68;30.04;102083.06;5057698;28;20020;-44
2022/05/13 04:09:04;;;;;;;0.95;0.40;;;;;;;24.58;30.12;102054.81;5071018;28;20059;-50
2022/05/13 04:11:36;;;;;;;2.03;0.50;;;;;;;24.70;29.88;102070.91;5075376;28;20071;-46
2022/05/13 04:16:52;;;;;;;1.52;0.68;;;;;;;24.73;29.98;102078.00;5071010;28;20036;-43
2022/05/13 04:19:21;;;;;;;3.08;0.70;;;;;;;24.70;30.26;102068.28;5075225;28;20070;-45
2022/05/13 04:21:51;;;;;;;2.80;0.80;;;;;;;24.70;29.97;102070.91;5074030;28;20082;-43
2022/05/13 04:24:20;;;;;;;6.43;1.02;;;;;;;24.66;29.83;102078.63;5074984;28;20044;-46
2022/05/13 04:26:48;;;;;;;2.80;1.02;;;;;;;24.65;30.35;102071.59;5074823;28;20422;-47
2022/05/13 04:29:17;;;;;;;1.60;0.73;;;;;;;24.66;30.10;102074.25;5074992;28;20103;-47
2022/05/13 04:31:45;;;;;;;2.17;0.77;;;;;;;24.63;30.05;102074.19;5073634;28;20145;-50
2022/05/13 04:34:14;;;;;;;1.63;0.50;;;;;;;24.65;29.99;102079.47;5074872;28;20107;-47
2022/05/13 04:36:42;;;;;;;2.33;0.60;;;;;;;24.60;30.25;102074.09;5074950;28;20028;-48
2022/05/13 04:39:10;;;;;;;1.70;0.60;;;;;;;24.63;29.89;102078.53;5074683;28;20052;-45
2022/05/13 04:44:26;;;;;;;1.15;0.68;;;;;;;24.56;30.23;102074.84;5066998;28;20044;-48
2022/05/13 04:46:54;;;;;;;2.33;0.60;;;;;;;24.55;29.98;102084.47;5074444;28;20438;-42
2022/05/13 04:49:23;;;;;;;2.30;0.60;;;;;;;24.51;30.23;102086.94;5089748;28;20032;-50
2022/05/13 04:51:51;;;;;;;1.23;0.50;;;;;;;24.48;30.52;102093.00;5074408;28;20398;-46
2022/05/13 04:54:19;;;;;;;1.63;0.65;;;;;;;24.48;30.01;102079.88;5074459;28;20032;-45
2022/05/13 04:56:47;;;;;;;2.85;0.50;;;;;;;24.55;30.25;102092.34;5074134;28;20028;-43
2022/05/13 04:59:16;;;;;;;5.20;1.20;;;;;;;24.53;29.96;102103.63;5074378;28;20028;-49
2022/05/13 05:01:44;;;;;;;2.83;0.90;;;;;;;24.53;30.10;102101.91;5074168;28;20535;-42
2022/05/13 05:04:13;;;;;;;3.08;0.82;;;;;;;24.50;29.88;102086.06;5073968;28;20044;-48
2022/05/13 05:06:42;;;;;;;2.45;0.70;;;;;;;24.47;29.96;102096.47;5073944;28;20083;-45
2022/05/13 05:09:11;;;;;;;3.03;0.60;;;;;;;24.47;30.15;102100.84;5074121;28;20017;-46
2022/05/13 05:11:39;;;;;;;1.90;0.75;;;;;;;24.52;30.23;102108.00;5073799;28;20426;-43
2022/05/13 05:14:08;;;;;;;2.15;0.93;;;;;;;24.49;30.32;102099.16;5056367;28;20028;-45
2022/05/13 05:16:36;;;;;;;1.25;0.45;;;;;;;24.49;30.35;102107.03;5073679;28;20150;-43
2022/05/13 05:19:05;;;;;;;1.27;0.50;;;;;;;24.51;29.97;102105.31;5073891;28;20470;-46
2022/05/13 05:21:34;;;;;;;1.90;0.60;;;;;;;24.46;29.98;102107.78;5073934;28;20029;-44
2022/05/13 05:24:02;;;;;;;1.58;0.60;;;;;;;24.43;30.18;102102.47;5073681;28;20056;-43
2022/05/13 05:26:32;;;;;;;2.67;0.95;;;;;;;24.45;30.04;102120.88;5073453;28;20024;-44
2022/05/13 05:29:00;;;;;;;3.25;0.45;;;;;;;24.49;30.48;102112.28;5072566;28;20043;-44
2022/05/13 05:31:29;;;;;;;2.25;0.70;;;;;;;24.45;30.10;102103.41;5073510;28;20029;-46
2022/05/13 05:33:57;;;;;;;1.60;0.50;;;;;;;24.58;30.00;102112.53;5072299;28;20458;-47
2022/05/13 05:36:26;;;;;;;2.03;0.63;;;;;;;24.63;30.05;102126.66;5073714;28;20024;-44
2022/05/13 05:38:54;;;;;;;2.40;0.70;;;;;;;24.60;30.07;102125.66;5072407;28;20101;-43
2022/05/13 05:41:23;;;;;;;1.13;0.55;;;;;;;24.82;29.88;102128.09;5073711;28;20524;-50
2022/05/13 05:43:51;;;;;;;3.22;0.60;;;;;;;25.00;29.41;102122.44;5072990;28;20123;-42
2022/05/13 05:46:20;;;;;;;2.80;0.70;;;;;;;25.00;29.85;102126.81;5073294;28;20516;-42
2022/05/13 05:48:48;;;;;;;1.98;0.60;;;;;;;25.03;29.48;102132.16;5073480;28;20029;-44
2022/05/13 05:51:17;;;;;;;1.35;0.65;;;;;;;25.11;29.50;102135.88;5073453;28;20389;-45
2022/05/13 05:57:14;;;;;;;1.67;0.60;;;;;;;25.10;29.89;102125.34;5073283;28;20090;-42
2022/05/13 05:59:20;;;;;;;1.83;0.80;;;;;;;25.03;29.75;102116.41;5066988;28;20034;-45
2022/05/13 06:01:49;;;;;;;3.78;0.75;;;;;;;25.12;30.30;102128.91;5073436;28;20701;-44
2022/05/13 06:04:17;;;;;;;2.50;0.55;;;;;;;25.13;30.33;102134.19;5073167;28;20032;-49
2022/05/13 06:06:46;;;;;;;4.05;0.90;;;;;;;25.17;29.99;102133.41;5073516;28;20025;-48
2022/05/13 06:09:15;;;;;;;1.67;0.60;;;;;;;25.17;30.39;102140.38;5073415;28;20029;-43
2022/05/13 06:11:43;;;;;;;5.90;0.70;;;;;;;25.16;30.28;102138.59;5073518;28;20466;-48
2022/05/13 06:14:12;;;;;;;8.48;1.00;;;;;;;25.18;30.59;102136.91;5073305;28;20501;-44
2022/05/13 06:16:41;;;;;;;3.65;1.17;;;;;;;25.30;30.76;102153.03;5073199;28;20054;-42
2022/05/13 06:19:10;;;;;;;3.25;0.80;;;;;;;25.28;30.39;102149.47;5073203;28;20028;-47
2022/05/13 06:21:39;;;;;;;4.57;0.85;;;;;;;25.30;30.65;102150.41;5072959;28;20031;-43
2022/05/13 06:24:08;;;;;;;0.57;0.43;;;;;;;25.30;30.59;102147.75;5075138;28;20553;-51
2022/05/13 06:26:36;;;;;;;2.80;0.65;;;;;;;25.40;30.61;102159.38;5077096;28;20431;-44
2022/05/13 06:29:05;;;;;;;6.22;1.15;;;;;;;25.45;30.67;102167.44;5077328;28;20173;-48
2022/05/13 06:31:34;;;;;;;2.33;1.00;;;;;;;25.48;30.85;102168.38;5077072;28;20109;-44
2022/05/13 06:34:03;;;;;;;3.05;0.60;;;;;;;25.50;30.76;102163.16;5077451;28;20024;-43
2022/05/13 06:36:32;;;;;;;1.92;0.60;;;;;;;25.58;30.94;102171.25;5076964;28;20024;-45
2022/05/13 06:39:01;;;;;;;3.22;0.70;;;;;;;25.58;30.79;102159.00;5076976;28;20378;-47
2022/05/13 06:41:29;;;;;;;2.25;0.57;;;;;;;25.62;31.02;102165.22;5076978;28;20020;-46
2022/05/13 06:43:58;;;;;;;1.60;0.60;;;;;;;25.71;30.98;102169.81;5076680;28;20116;-43
2022/05/13 06:46:26;;;;;;;8.45;0.90;;;;;;;25.81;31.03;102182.34;5076432;28;20032;-51
2022/05/13 06:48:55;;;;;;;4.80;0.50;;;;;;;25.82;31.33;102181.47;5076164;28;20028;-46
2022/05/13 06:51:24;;;;;;;4.97;0.77;;;;;;;25.88;31.42;102180.75;5076627;28;20055;-49
2022/05/13 06:53:53;;;;;;;1.75;0.40;;;;;;;25.93;31.31;102190.53;5092333;28;20426;-51
2022/05/13 06:56:21;;;;;;;5.85;0.90;;;;;;;25.97;31.53;102190.59;5076586;28;20028;-46
2022/05/13 06:58:50;;;;;;;2.80;0.55;;;;;;;26.03;31.43;102182.84;5075998;28;20032;-46
2022/05/13 07:01:21;;;;;;;5.30;0.70;;;;;;;26.12;31.19;102196.25;5076080;28;20112;-47
2022/05/13 07:03:50;;;;;;;3.60;0.73;;;;;;;26.18;31.27;102193.75;5076598;28;20056;-46
2022/05/13 07:06:19;;;;;;;1.60;0.50;;;;;;;26.24;31.66;102195.63;5076222;28;20069;-46
2022/05/13 07:08:50;;;;;;;1.63;0.50;;;;;;;26.32;31.42;102198.44;5076570;28;20462;-48
2022/05/13 07:11:20;;;;;;;3.50;0.40;;;;;;;26.25;31.58;102173.72;5076249;28;20025;-44
2022/05/13 07:13:49;;;;;;;4.25;0.93;;;;;;;26.41;31.58;102198.66;5076303;28;20028;-48
2022/05/13 07:16:17;;;;;;;1.35;0.40;;;;;;;26.47;31.24;102197.91;5076223;28;20032;-47
2022/05/13 07:18:47;;;;;;;8.38;0.85;;;;;;;26.52;31.59;102205.03;5076184;28;20409;-45
2022/05/13 07:21:15;;;;;;;2.13;0.60;;;;;;;26.55;31.66;102198.97;5074979;28;20043;-48
2022/05/13 07:23:44;;;;;;;3.78;0.93;;;;;;;26.62;31.28;102211.38;5075884;28;20045;-47
2022/05/13 07:26:13;;;;;;;2.05;0.57;;;;;;;26.69;31.73;102209.78;5074646;28;20024;-43
2022/05/13 07:28:41;;;;;;;2.20;0.70;;;;;;;26.71;31.41;102200.16;5076218;28;20424;-42
2022/05/13 07:31:10;;;;;;;2.60;0.68;;;;;;;26.77;31.60;102213.47;5076152;28;20112;-43
2022/05/13 07:33:39;;;;;;;4.60;0.75;;;;;;;26.86;31.53;102214.53;5076470;28;20043;-51
2022/05/13 07:36:07;;;;;;;1.50;0.50;;;;;;;26.87;31.48;102208.41;5075293;28;20488;-43
2022/05/13 07:38:36;;;;;;;6.13;0.50;;;;;;;26.92;31.71;102217.31;5075782;28;20032;-46
2022/05/13 07:41:25;;;;;;;1.88;0.57;;;;;;;26.96;31.60;102211.25;5075838;28;20020;-46
2022/05/13 07:43:53;;;;;;;3.80;0.65;;;;;;;27.03;31.63;102217.53;5075944;28;20579;-50
2022/05/13 07:46:22;;;;;;;4.30;0.95;;;;;;;27.07;31.37;102214.97;5075786;28;20032;-43
2022/05/13 07:48:51;;;;;;;6.38;0.93;;;;;;;27.09;31.54;102221.16;5075855;28;20377;-47
2022/05/13 07:51:23;;;;;;;3.28;0.70;;;;;;;27.18;31.50;102222.19;5075696;28;20024;-42
2022/05/13 07:53:51;;;;;;;5.68;2.13;;;;;;;27.25;31.18;102224.09;5075269;28;20021;-47
2022/05/13 07:56:21;;;;;;;3.30;1.13;;;;;;;27.29;31.12;102231.19;5075088;28;20025;-42
2022/05/13 07:58:49;;;;;;;5.50;1.00;;;;;;;27.32;31.15;102225.97;5075477;28;20484;-49
2022/05/13 08:01:18;;;;;;;5.60;1.40;;;;;;;27.25;31.24;102209.16;5075623;28;20064;-50
2022/05/13 08:03:49;;;;;;;6.72;1.20;;;;;;;27.36;31.10;102221.66;5074351;28;20162;-44
2022/05/13 08:06:17;;;;;;;4.07;0.80;;;;;;;27.40;31.17;102223.47;5075351;28;20021;-47
2022/05/13 08:08:50;;;;;;;5.88;1.50;;;;;;;27.37;31.25;102224.31;5075346;28;20036;-49
2022/05/13 08:11:19;;;;;;;4.88;0.98;;;;;;;27.41;31.24;102215.59;5075445;28;20055;-43
2022/05/13 08:13:48;;;;;;;4.80;1.30;;;;;;;27.42;31.18;102225.28;5075476;28;20032;-43
2022/05/13 08:16:19;;;;;;;6.90;1.35;;;;;;;27.44;31.10;102220.94;5073707;28;20036;-43
2022/05/13 08:18:48;;;;;;;3.47;1.05;;;;;;;27.49;31.19;102217.50;5073913;28;20029;-48
2022/05/13 08:21:16;;;;;;;7.32;1.23;;;;;;;27.48;31.20;102221.00;5075108;28;20028;-44
2022/05/13 08:23:45;;;;;;;3.50;1.08;;;;;;;27.49;31.02;102222.78;5074665;28;20040;-49
2022/05/13 08:26:14;;;;;;;6.93;1.13;;;;;;;27.44;31.21;102218.31;5074645;28;20433;-44
2022/05/13 08:28:43;;;;;;;5.47;1.00;;;;;;;27.54;31.12;102216.75;5074853;28;20462;-42
2022/05/13 08:31:14;;;;;;;7.57;1.33;;;;;;;27.59;30.86;102219.47;5073731;28;20067;-47
2022/05/13 08:33:42;;;;;;;4.53;1.20;;;;;;;27.60;31.02;102222.13;5090438;28;20140;-46
2022/05/13 08:36:11;;;;;;;6.47;1.30;;;;;;;27.64;30.90;102215.13;5073359;28;20035;-44
2022/05/13 08:38:40;;;;;;;4.50;1.00;;;;;;;27.67;30.68;102211.69;5075379;28;20097;-42
2022/05/13 08:41:09;;;;;;;4.05;1.20;;;;;;;27.71;30.90;102224.06;5074654;28;20021;-42
2022/05/13 08:43:44;;;;;;;3.67;1.30;;;;;;;27.75;30.87;102218.88;5075118;28;20024;-50
2022/05/13 08:46:17;;;;;;;2.88;1.00;;;;;;;27.81;30.72;102223.34;5074111;28;20524;-42
2022/05/13 08:49:04;;;;;;;8.43;1.90;;;;;;;27.89;30.82;102219.06;5073618;28;20020;-48
2022/05/13 08:51:50;;;;;;;30.48;3.10;;;;;;;27.87;30.68;102212.91;5070271;28;20068;-52
2022/05/13 08:54:21;;;;;;;24.27;1.67;;;;;;;27.78;30.88;102218.03;5074176;28;20025;-47
2022/05/13 08:56:54;;;;;;;9.00;1.33;;;;;;;27.71;31.03;102219.66;5074319;28;20456;-45
2022/05/13 08:59:27;;;;;;;6.35;1.52;;;;;;;27.67;31.16;102220.47;5073256;28;20029;-47
2022/05/13 09:02:02;;;;;;;9.63;1.10;;;;;;;27.70;31.38;102217.03;5074572;28;20028;-44
2022/05/13 09:04:40;;;;;;;7.75;1.98;;;;;;;27.70;31.42;102223.16;5074208;28;20059;-48
2022/05/13 09:07:16;;;;;;;7.25;1.75;;;;;;;27.81;31.44;102227.72;5074146;28;20028;-48
2022/05/13 09:09:47;;;;;;;9.38;1.50;;;;;;;27.82;31.38;102225.13;5074119;28;20035;-44
2022/05/13 09:12:33;;;;;;;7.45;2.13;;;;;;;27.81;31.49;102222.44;5073931;28;20028;-47
2022/05/13 09:15:33;;;;;;;7.57;1.38;;;;;;;27.80;31.31;102221.56;5074042;28;20024;-48
2022/05/13 09:18:40;;;;;;;12.13;2.33;;;;;;;27.88;31.33;102221.69;5066308;28;20032;-43
2022/05/13 09:21:16;;;;;;;5.90;1.95;;;;;;;27.90;31.34;102219.97;5073830;28;20082;-49
2022/05/13 09:23:45;;;;;;;8.80;1.88;;;;;;;27.92;31.29;102222.63;5073526;28;20514;-47
2022/05/13 09:26:20;;;;;;;10.23;1.70;;;;;;;27.97;31.32;102227.09;5073618;28;20036;-47
2022/05/13 09:29:10;;;;;;;8.15;1.73;;;;;;;28.01;31.32;102228.94;5072576;28;20111;-45
2022/05/13 09:32:01;;;;;;;5.32;1.40;;;;;;;28.03;31.37;102224.56;5065568;28;20036;-45
2022/05/13 09:34:34;;;;;;;4.28;1.17;;;;;;;28.11;31.28;102218.56;5073990;28;20044;-46
2022/05/13 09:37:19;;;;;;;7.03;1.65;;;;;;;28.10;31.30;102225.59;5073007;28;20032;-47
2022/05/13 09:39:49;;;;;;;6.07;1.50;;;;;;;28.08;31.30;102221.13;5073434;28;20055;-46
2022/05/13 09:42:23;;;;;;;9.73;2.17;;;;;;;28.14;31.18;102218.59;5072259;28;20038;-48
2022/05/13 09:44:52;;;;;;;7.90;1.40;;;;;;;28.13;31.27;102225.66;5072256;28;20081;-47
2022/05/13 09:47:30;;;;;;;9.85;1.35;;;;;;;28.09;31.20;102220.28;5074010;28;20377;-47
2022/05/13 09:50:01;;;;;;;4.65;1.33;;;;;;;28.16;31.22;102222.16;5073428;28;20074;-46
2022/05/13 09:52:34;;;;;;;7.25;1.48;;;;;;;28.14;31.19;102211.59;5073530;28;20063;-48
2022/05/13 09:55:14;;;;;;;6.40;1.40;;;;;;;28.20;31.33;102218.69;5072319;28;20028;-46
2022/05/13 09:57:43;;;;;;;8.85;1.60;;;;;;;28.22;31.31;102219.63;5073410;28;20036;-47
2022/05/13 10:00:17;;;;;;;7.30;1.92;;;;;;;28.19;31.25;102220.47;5073167;28;20037;-47
2022/05/13 10:02:49;;;;;;;7.30;1.90;;;;;;;28.24;31.29;102225.81;5072727;28;20025;-46
2022/05/13 10:05:29;;;;;;;6.97;1.50;;;;;;;28.27;31.13;102220.59;5073039;28;20042;-45
2022/05/13 10:08:01;;;;;;;5.28;1.40;;;;;;;28.25;31.10;102222.31;5073133;28;20028;-44
2022/05/13 10:14:12;;;;;;;7.38;1.58;;;;;;;28.22;31.46;102224.91;5072217;28;20394;-43
2022/05/13 10:16:43;;;;;;;4.38;1.35;;;;;;;28.20;31.25;102208.16;5072804;28;20036;-44
2022/05/13 10:19:18;;;;;;;7.90;1.77;;;;;;;28.28;31.10;102222.34;5067690;28;20097;-44
2022/05/13 10:21:51;;;;;;;5.72;1.10;;;;;;;28.25;31.25;102224.94;5072795;28;20036;-43
2022/05/13 10:24:39;;;;;;;7.22;1.42;;;;;;;28.23;31.35;102224.03;5071838;28;20045;-47
2022/05/13 10:27:10;;;;;;;7.80;1.83;;;;;;;28.20;31.30;102214.34;5073046;28;20474;-44
2022/05/13 10:29:41;;;;;;;4.13;1.73;;;;;;;28.34;30.93;102211.88;5072116;28;20056;-47
2022/05/13 10:32:18;;;;;;;8.95;1.98;;;;;;;28.26;31.12;102208.25;5071806;28;20024;-47
2022/05/13 10:34:50;;;;;;;5.35;1.38;;;;;;;28.28;31.23;102214.44;5072707;28;20032;-46
2022/05/13 10:37:20;;;;;;;7.40;1.90;;;;;;;28.28;31.05;102209.16;5071601;28;20020;-45
2022/05/13 10:39:55;;;;;;;5.53;1.40;;;;;;;28.27;31.13;102195.94;5073077;28;20059;-45
2022/05/13 10:42:27;;;;;;;5.35;1.48;;;;;;;28.29;31.05;102197.75;5071808;28;20021;-48
2022/05/13 10:45:00;;;;;;;6.20;1.40;;;;;;;28.26;31.09;102191.50;5071662;28;20111;-49
2022/05/13 10:47:43;;;;;;;5.88;1.73;;;;;;;28.29;31.02;102191.56;5071903;28;20050;-46
2022/05/13 10:50:16;;;;;;;5.45;1.33;;;;;;;28.32;31.19;102197.75;5072050;28;20032;-44
2022/05/13 10:53:05;;;;;;;8.30;1.60;;;;;;;28.35;30.88;102194.31;5072659;28;20055;-45
2022/05/13 10:55:39;;;;;;;7.05;2.08;;;;;;;28.40;30.89;102191.72;5068932;28;20102;-47
2022/05/13 10:58:27;;;;;;;9.82;2.20;;;;;;;28.41;30.78;102190.84;5071833;28;20033;-45
2022/05/13 11:01:01;;;;;;;5.68;1.38;;;;;;;28.39;30.91;102192.59;5065645;28;20125;-43
2022/05/13 11:03:54;;;;;;;7.45;1.60;;;;;;;28.37;30.72;102173.19;5072772;28;20382;-44
2022/05/13 11:06:46;;;;;;;4.95;1.10;;;;;;;28.50;30.61;102188.31;5071936;28;20028;-48
2022/05/13 11:09:36;;;;;;;5.60;1.40;;;;;;;28.50;30.54;102181.31;5063171;28;20072;-45
2022/05/13 11:12:11;;;;;;;5.45;1.48;;;;;;;28.47;30.53;102183.91;5070218;28;20051;-48
2022/05/13 11:14:43;;;;;;;5.88;1.20;;;;;;;28.46;30.89;102178.63;5076385;28;20107;-47
2022/05/13 11:17:14;;;;;;;4.28;1.30;;;;;;;28.47;30.73;102180.34;5076410;28;20510;-45
2022/05/13 11:19:52;;;;;;;11.65;1.75;;;;;;;28.44;30.89;102173.28;5076168;28;20028;-45
2022/05/13 11:22:48;;;;;;;7.88;2.20;;;;;;;28.41;30.64;102167.97;5075576;28;20378;-44
2022/05/13 11:25:59;;;;;;;5.22;1.25;;;;;;;28.44;30.83;102168.00;5075821;28;20060;-46
2022/05/13 11:28:29;;;;;;;7.50;1.88;;;;;;;28.45;30.90;102166.28;5072852;28;20111;-44
2022/05/13 11:31:20;;;;;;;5.68;1.10;;;;;;;28.35;30.87;102154.72;5076119;28;20028;-44
2022/05/13 11:34:12;;;;;;;7.40;1.30;;;;;;;28.49;30.76;102173.34;5075464;28;20036;-46
2022/05/13 11:37:02;;;;;;;6.40;1.38;;;;;;;28.46;30.73;102166.28;5076114;28;20033;-47
2022/05/13 11:39:41;;;;;;;5.22;1.15;;;;;;;28.40;30.71;102171.47;5067349;28;20039;-45
2022/05/13 11:42:28;;;;;;;3.40;1.00;;;;;;;28.42;30.67;102169.75;5076033;28;20351;-44
2022/05/13 11:45:17;;;;;;;7.32;1.33;;;;;;;28.38;30.71;102162.66;5068519;28;20044;-46
2022/05/13 11:47:56;;;;;;;3.55;1.10;;;;;;;28.40;30.54;102168.84;5074589;28;20024;-47
2022/05/13 11:50:26;;;;;;;3.63;0.90;;;;;;;28.38;30.47;102159.13;5074862;28;20036;-44
2022/05/13 11:52:55;;;;;;;4.40;1.10;;;;;;;28.33;30.48;102165.22;5074425;28;20028;-46
2022/05/13 11:55:43;;;;;;;2.35;0.90;;;;;;;28.32;30.41;102159.94;5075547;28;20474;-45
2022/05/13 11:58:49;;;;;;;6.18;1.60;;;;;;;28.33;30.41;102165.22;5075529;28;20377;-46
2022/05/13 12:01:37;;;;;;;2.88;1.13;;;;;;;28.34;30.22;102164.38;5071355;28;20037;-45